createdAt,value
2017-12-02T00:00:14.294Z,101478.75
2017-12-02T00:02:45.365Z,101474.08
2017-12-02T00:05:16.351Z,101483.82
2017-12-02T00:10:50.480Z,101483.67
2017-12-02T00:13:20.085Z,101486.62
2017-12-02T00:15:49.408Z,101483.38
2017-12-02T00:18:17.882Z,101482.77
2017-12-02T00:20:46.337Z,101493.84
2017-12-02T00:23:14.800Z,101494.67
2017-12-02T00:25:43.196Z,101495.22
2017-12-02T00:28:11.705Z,101505.51
2017-12-02T00:30:40.081Z,101504.64
2017-12-02T00:33:08.512Z,101497.21
2017-12-02T00:35:36.969Z,101505.20
2017-12-02T00:38:06.124Z,101512.81
2017-12-02T00:40:34.613Z,101514.19
2017-12-02T00:43:03.029Z,101518.58
2017-12-02T00:45:31.489Z,101518.83
2017-12-02T00:47:59.929Z,101524.91
2017-12-02T00:50:29.272Z,101520.95
2017-12-02T00:52:57.656Z,101523.19
2017-12-02T00:55:26.476Z,101528.13
2017-12-02T00:57:55.640Z,101528.47
2017-12-02T01:00:24.488Z,101534.92
2017-12-02T01:02:52.969Z,101538.58
2017-12-02T01:05:21.384Z,101538.14
2017-12-02T01:07:49.809Z,101535.29
2017-12-02T01:10:18.319Z,101538.37
2017-12-02T01:12:47.489Z,101535.81
2017-12-02T01:15:17.068Z,101544.09
2017-12-02T01:17:45.520Z,101548.10
2017-12-02T01:20:14.348Z,101550.75
2017-12-02T01:22:42.792Z,101555.58
2017-12-02T01:25:12.028Z,101559.63
2017-12-02T01:27:40.824Z,101554.33
2017-12-02T01:30:09.296Z,101563.08
2017-12-02T01:32:37.688Z,101563.50
2017-12-02T01:35:07.302Z,101558.44
2017-12-02T01:37:35.765Z,101567.62
2017-12-02T01:40:04.197Z,101567.34
2017-12-02T01:42:32.616Z,101570.17
2017-12-02T01:45:02.400Z,101566.50
2017-12-02T01:47:30.812Z,101576.47
2017-12-02T01:49:59.634Z,101575.86
2017-12-02T01:52:28.020Z,101576.87
2017-12-02T01:54:56.485Z,101580.47
2017-12-02T01:57:25.465Z,101576.20
2017-12-02T01:59:54.706Z,101579.02
2017-12-02T02:02:23.252Z,101583.96
2017-12-02T02:04:51.694Z,101583.96
2017-12-02T02:07:20.096Z,101587.97
2017-12-02T02:09:48.595Z,101585.63
2017-12-02T02:12:17.025Z,101585.85
2017-12-02T02:14:46.248Z,101592.51
2017-12-02T02:17:14.951Z,101592.30
2017-12-02T02:19:43.371Z,101590.13
2017-12-02T02:22:13.048Z,101598.16
2017-12-02T02:24:41.988Z,101596.71
2017-12-02T02:27:10.416Z,101596.52
2017-12-02T02:29:38.864Z,101598.22
2017-12-02T02:32:07.276Z,101606.50
2017-12-02T02:34:35.682Z,101608.81
2017-12-02T02:37:04.177Z,101609.81
2017-12-02T02:39:32.599Z,101604.17
2017-12-02T02:42:00.999Z,101609.42
2017-12-02T02:44:30.137Z,101609.23
2017-12-02T02:46:58.506Z,101608.15
2017-12-02T02:49:26.916Z,101612.60
2017-12-02T02:51:56.034Z,101615.34
2017-12-02T02:54:24.461Z,101617.53
2017-12-02T02:56:52.855Z,101620.42
2017-12-02T02:59:21.615Z,101624.34
2017-12-02T03:01:50.044Z,101619.09
2017-12-02T03:04:18.431Z,101623.35
2017-12-02T03:06:47.232Z,101624.70
2017-12-02T03:09:15.628Z,101624.41
2017-12-02T03:11:44.835Z,101626.92
2017-12-02T03:14:14.035Z,101627.68
2017-12-02T03:16:42.419Z,101633.77
2017-12-02T03:19:10.828Z,101637.76
2017-12-02T03:21:39.175Z,101645.06
2017-12-02T03:24:07.554Z,101646.22
2017-12-02T03:26:35.976Z,101641.38
2017-12-02T03:29:04.339Z,101650.72
2017-12-02T03:31:33.131Z,101646.95
2017-12-02T03:34:01.551Z,101653.61
2017-12-02T03:36:29.951Z,101653.27
2017-12-02T03:38:58.327Z,101661.20
2017-12-02T03:41:26.755Z,101665.70
2017-12-02T03:43:55.187Z,101670.75
2017-12-02T03:46:24.347Z,101670.98
2017-12-02T03:48:53.139Z,101667.55
2017-12-02T03:51:22.675Z,101666.00
2017-12-02T03:53:51.831Z,101667.28
2017-12-02T03:56:20.251Z,101672.69
2017-12-02T03:58:48.647Z,101676.53
2017-12-02T04:01:17.026Z,101674.92
2017-12-02T04:03:45.439Z,101677.63
2017-12-02T04:06:13.872Z,101669.23
2017-12-02T04:08:42.291Z,101672.09
2017-12-02T04:11:10.655Z,101673.78
2017-12-02T04:13:39.819Z,101676.58
2017-12-02T04:16:08.959Z,101686.64
2017-12-02T04:18:37.339Z,101684.44
2017-12-02T04:21:06.540Z,101687.97
2017-12-02T04:23:34.911Z,101683.92
2017-12-02T04:26:04.075Z,101691.48
2017-12-02T04:28:32.535Z,101691.51
2017-12-02T04:31:01.679Z,101696.64
2017-12-02T04:33:30.103Z,101695.92
2017-12-02T04:35:58.531Z,101698.14
2017-12-02T04:38:26.899Z,101699.52
2017-12-02T04:40:55.322Z,101696.98
2017-12-02T04:43:24.471Z,101703.56
2017-12-02T04:45:52.886Z,101700.67
2017-12-02T04:48:21.296Z,101706.43
2017-12-02T04:50:49.654Z,101697.55
2017-12-02T04:53:18.067Z,101702.88
2017-12-02T04:55:46.835Z,101703.53
2017-12-02T04:58:15.255Z,101710.34
2017-12-02T05:00:43.662Z,101705.27
2017-12-02T05:03:12.054Z,101708.02
2017-12-02T05:05:40.471Z,101706.38
2017-12-02T05:08:08.887Z,101714.69
2017-12-02T05:10:38.103Z,101714.07
2017-12-02T05:13:07.302Z,101714.95
2017-12-02T05:15:35.738Z,101716.02
2017-12-02T05:18:04.163Z,101713.55
2017-12-02T05:20:32.563Z,101713.97
2017-12-02T05:23:00.978Z,101714.46
2017-12-02T05:25:29.835Z,101708.32
2017-12-02T05:27:58.207Z,101716.63
2017-12-02T05:30:26.578Z,101717.34
2017-12-02T05:32:55.066Z,101713.87
2017-12-02T05:35:24.612Z,101722.18
2017-12-02T05:37:53.012Z,101727.78
2017-12-02T05:40:22.326Z,101721.51
2017-12-02T05:42:51.542Z,101724.45
2017-12-02T05:45:20.006Z,101727.25
2017-12-02T05:47:50.267Z,101728.73
2017-12-02T05:50:18.666Z,101729.52
2017-12-02T05:52:47.070Z,101732.77
2017-12-02T05:55:15.874Z,101741.89
2017-12-02T05:57:44.290Z,101740.12
2017-12-02T06:00:12.700Z,101747.01
2017-12-02T06:02:41.070Z,101747.48
2017-12-02T06:05:09.890Z,101755.69
2017-12-02T06:07:38.273Z,101762.53
2017-12-02T06:10:06.754Z,101759.60
2017-12-02T06:12:35.130Z,101758.32
2017-12-02T06:15:03.503Z,101769.12
2017-12-02T06:17:32.620Z,101767.12
2017-12-02T06:20:01.002Z,101770.99
2017-12-02T06:22:30.135Z,101772.90
2017-12-02T06:24:58.550Z,101777.52
2017-12-02T06:27:27.389Z,101780.84
2017-12-02T06:29:55.782Z,101780.92
2017-12-02T06:32:24.930Z,101783.06
2017-12-02T06:34:53.319Z,101775.34
2017-12-02T06:37:24.045Z,101777.95
2017-12-02T06:39:53.594Z,101787.45
2017-12-02T06:42:21.978Z,101788.45
2017-12-02T06:44:50.394Z,101790.55
2017-12-02T06:47:18.817Z,101794.19
2017-12-02T06:49:47.922Z,101793.70
2017-12-02T06:52:16.394Z,101789.78
2017-12-02T06:54:45.149Z,101792.96
2017-12-02T06:57:13.526Z,101788.47
2017-12-02T06:59:41.942Z,101799.47
2017-12-02T07:02:10.766Z,101795.97
2017-12-02T07:04:39.173Z,101800.86
2017-12-02T07:07:07.579Z,101806.19
2017-12-02T07:09:35.918Z,101813.91
2017-12-02T07:12:05.034Z,101807.47
2017-12-02T07:14:33.465Z,101807.31
2017-12-02T07:17:02.253Z,101814.11
2017-12-02T07:19:31.541Z,101811.91
2017-12-02T07:22:00.423Z,101811.98
2017-12-02T07:24:29.453Z,101811.52
2017-12-02T07:26:58.632Z,101816.04
2017-12-02T07:29:27.773Z,101825.28
2017-12-02T07:31:56.303Z,101816.69
2017-12-02T07:34:24.649Z,101814.59
2017-12-02T07:36:53.465Z,101818.12
2017-12-02T07:39:22.628Z,101823.98
2017-12-02T07:41:50.965Z,101820.95
2017-12-02T07:44:20.089Z,101819.63
2017-12-02T07:46:49.837Z,101828.60
2017-12-02T07:49:18.217Z,101822.75
2017-12-02T07:51:47.402Z,101821.27
2017-12-02T07:54:16.517Z,101825.23
2017-12-02T07:56:46.418Z,101824.09
2017-12-02T07:59:16.340Z,101824.16
2017-12-02T08:01:44.953Z,101824.67
2017-12-02T08:04:14.113Z,101825.69
2017-12-02T08:06:42.474Z,101833.47
2017-12-02T08:09:10.875Z,101838.09
2017-12-02T08:11:39.249Z,101845.55
2017-12-02T08:14:07.706Z,101837.63
2017-12-02T08:16:36.856Z,101843.45
2017-12-02T08:19:06.024Z,101847.01
2017-12-02T08:21:34.829Z,101847.06
2017-12-02T08:24:03.961Z,101847.70
2017-12-02T08:26:32.389Z,101848.48
2017-12-02T08:29:01.123Z,101857.10
2017-12-02T08:31:29.453Z,101854.20
2017-12-02T08:33:58.593Z,101854.53
2017-12-02T08:36:27.377Z,101858.72
2017-12-02T08:38:55.765Z,101868.95
2017-12-02T08:41:25.494Z,101865.64
2017-12-02T08:43:53.905Z,101864.20
2017-12-02T08:46:23.065Z,101866.86
2017-12-02T08:48:53.034Z,101873.78
2017-12-02T08:51:21.445Z,101877.28
2017-12-02T08:53:49.796Z,101875.30
2017-12-02T08:56:18.197Z,101882.55
2017-12-02T08:58:46.580Z,101874.34
2017-12-02T09:01:14.947Z,101886.17
2017-12-02T09:03:43.354Z,101893.30
2017-12-02T09:06:11.716Z,101895.80
2017-12-02T09:08:40.514Z,101896.77
2017-12-02T09:11:08.893Z,101903.22
2017-12-02T09:13:37.320Z,101904.36
2017-12-02T09:16:05.776Z,101903.09
2017-12-02T09:18:34.180Z,101906.55
2017-12-02T09:21:02.568Z,101907.05
2017-12-02T09:23:30.983Z,101910.30
2017-12-02T09:25:59.345Z,101916.04
2017-12-02T09:28:27.853Z,101915.59
2017-12-02T09:30:56.228Z,101914.70
2017-12-02T09:33:25.361Z,101918.23
2017-12-02T09:35:53.741Z,101920.41
2017-12-02T09:38:22.117Z,101918.37
2017-12-02T09:40:52.024Z,101920.58
2017-12-02T09:43:20.817Z,101924.03
2017-12-02T09:45:50.181Z,101925.61
2017-12-02T09:48:19.684Z,101925.42
2017-12-02T09:50:48.820Z,101911.20
2017-12-02T09:53:17.220Z,101929.39
2017-12-02T09:55:46.390Z,101922.56
2017-12-02T09:58:14.744Z,101925.51
2017-12-02T10:00:43.168Z,101923.80
2017-12-02T10:03:12.318Z,101921.25
2017-12-02T10:05:41.480Z,101917.08
2017-12-02T10:08:10.296Z,101920.05
2017-12-02T10:10:39.836Z,101919.20
2017-12-02T10:13:08.216Z,101927.56
2017-12-02T10:15:36.604Z,101928.28
2017-12-02T10:18:05.004Z,101923.69
2017-12-02T10:20:34.164Z,101924.59
2017-12-02T10:23:02.548Z,101928.15
2017-12-02T10:25:30.921Z,101924.89
2017-12-02T10:27:59.328Z,101918.78
2017-12-02T10:30:27.732Z,101916.56
2017-12-02T10:32:56.560Z,101915.77
2017-12-02T10:35:24.908Z,101915.06
2017-12-02T10:37:53.304Z,101915.66
2017-12-02T10:40:22.440Z,101912.92
2017-12-02T10:42:50.920Z,101914.00
2017-12-02T10:45:19.396Z,101900.73
2017-12-02T10:47:48.514Z,101911.30
2017-12-02T10:50:16.956Z,101909.85
2017-12-02T10:52:45.368Z,101909.90
2017-12-02T10:55:14.205Z,101914.92
2017-12-02T10:57:42.676Z,101902.69
2017-12-02T11:00:11.116Z,101910.70
2017-12-02T11:02:40.227Z,101906.11
2017-12-02T11:05:08.640Z,101908.44
2017-12-02T11:07:37.025Z,101907.27
2017-12-02T11:10:05.507Z,101906.73
2017-12-02T11:12:33.865Z,101903.56
2017-12-02T11:15:02.596Z,101910.50
2017-12-02T11:17:31.775Z,101910.03
2017-12-02T11:20:00.125Z,101905.89
2017-12-02T11:22:28.476Z,101914.69
2017-12-02T11:24:57.656Z,101912.97
2017-12-02T11:27:26.035Z,101911.28
2017-12-02T11:29:54.452Z,101905.64
2017-12-02T11:32:22.888Z,101911.03
2017-12-02T11:34:52.043Z,101906.23
2017-12-02T11:37:20.384Z,101906.27
2017-12-02T11:39:49.536Z,101901.09
2017-12-02T11:42:17.963Z,101903.98
2017-12-02T11:44:47.127Z,101905.36
2017-12-02T11:47:17.051Z,101899.75
2017-12-02T11:49:46.172Z,101901.22
2017-12-02T11:52:14.952Z,101895.80
2017-12-02T11:54:43.295Z,101896.20
2017-12-02T11:57:11.734Z,101895.20
2017-12-02T11:59:40.947Z,101896.93
2017-12-02T12:02:10.164Z,101895.58
2017-12-02T12:04:38.535Z,101892.52
2017-12-02T12:07:08.039Z,101901.95
2017-12-02T12:09:38.680Z,101898.66
2017-12-02T12:12:07.177Z,101900.67
2017-12-02T12:14:41.514Z,101896.44
2017-12-02T12:17:10.679Z,101899.73
2017-12-02T12:19:39.072Z,101896.91
2017-12-02T12:22:11.602Z,101892.75
2017-12-02T12:24:43.571Z,101890.56
2017-12-02T12:27:12.866Z,101888.16
2017-12-02T12:29:42.595Z,101884.37
2017-12-02T12:32:13.019Z,101884.37
2017-12-02T12:34:45.148Z,101885.86
2017-12-02T12:37:18.811Z,101880.52
2017-12-02T12:39:50.015Z,101888.11
2017-12-02T12:42:18.523Z,101888.93
2017-12-02T12:44:46.915Z,101893.77
2017-12-02T12:47:16.878Z,101889.13
2017-12-02T12:49:45.306Z,101893.77
2017-12-02T12:52:13.715Z,101892.84
2017-12-02T12:54:42.735Z,101892.73
2017-12-02T12:57:12.036Z,101899.29
2017-12-02T12:59:42.678Z,101899.30
2017-12-02T13:02:11.039Z,101894.53
2017-12-02T13:04:40.223Z,101902.62
2017-12-02T13:07:08.751Z,101906.95
2017-12-02T13:09:39.305Z,101903.23
2017-12-02T13:12:09.183Z,101901.23
2017-12-02T13:14:38.023Z,101898.89
2017-12-02T13:17:06.795Z,101896.02
2017-12-02T13:19:35.604Z,101890.97
2017-12-02T13:22:05.375Z,101894.84
2017-12-02T13:24:33.783Z,101888.92
2017-12-02T13:27:02.543Z,101894.37
2017-12-02T13:29:31.687Z,101900.09
2017-12-02T13:32:00.095Z,101898.64
2017-12-02T13:34:28.503Z,101905.62
2017-12-02T13:36:58.051Z,101903.48
2017-12-02T13:39:27.355Z,101908.52
2017-12-02T13:41:58.339Z,101905.52
2017-12-02T13:44:31.687Z,101905.08
2017-12-02T13:47:00.095Z,101911.12
2017-12-02T13:49:29.252Z,101903.02
2017-12-02T13:51:58.420Z,101907.23
2017-12-02T13:54:27.937Z,101901.10
2017-12-02T13:56:57.075Z,101909.36
2017-12-02T13:59:25.447Z,101909.55
2017-12-02T14:01:53.818Z,101901.83
2017-12-02T14:04:22.226Z,101905.27
2017-12-02T14:06:53.122Z,101908.63
2017-12-02T14:09:23.942Z,101913.44
2017-12-02T14:11:53.382Z,101909.42
2017-12-02T14:14:26.726Z,101912.81
2017-12-02T14:16:55.910Z,101911.28
2017-12-02T14:19:33.539Z,101917.03
2017-12-02T14:22:03.459Z,101914.30
2017-12-02T14:24:37.530Z,101914.66
2017-12-02T14:27:06.003Z,101920.69
2017-12-02T14:29:35.156Z,101916.76
2017-12-02T14:32:04.913Z,101910.47
2017-12-02T14:34:37.566Z,101909.78
2017-12-02T14:37:05.950Z,101916.81
2017-12-02T14:39:36.646Z,101913.00
2017-12-02T14:42:06.242Z,101914.21
2017-12-02T14:44:40.678Z,101922.25
2017-12-02T14:47:09.145Z,101917.23
2017-12-02T14:49:37.710Z,101922.23
2017-12-02T14:52:07.438Z,101918.17
2017-12-02T14:58:35.974Z,101923.86
2017-12-02T15:01:06.254Z,101928.99
2017-12-02T15:03:41.354Z,101927.54
2017-12-02T15:06:09.775Z,101929.14
2017-12-02T15:08:39.018Z,101929.35
2017-12-02T15:11:18.858Z,101928.96
2017-12-02T15:13:48.069Z,101934.93
2017-12-02T15:16:17.646Z,101930.61
2017-12-02T15:18:46.269Z,101929.46
2017-12-02T15:21:16.108Z,101936.38
2017-12-02T15:23:45.337Z,101943.51
2017-12-02T15:26:15.166Z,101939.16
2017-12-02T15:28:43.570Z,101943.66
2017-12-02T15:31:12.810Z,101952.45
2017-12-02T15:33:46.609Z,101951.56
2017-12-02T15:36:16.721Z,101956.40
2017-12-02T15:38:46.630Z,101951.61
2017-12-02T15:41:17.106Z,101954.25
2017-12-02T15:43:49.206Z,101953.55
2017-12-02T15:46:17.639Z,101953.59
2017-12-02T15:48:45.997Z,101958.20
2017-12-02T15:51:15.109Z,101958.78
2017-12-02T15:53:43.707Z,101958.27
2017-12-02T15:56:12.974Z,101961.52
2017-12-02T15:58:42.705Z,101963.64
2017-12-02T16:01:12.218Z,101964.28
2017-12-02T16:03:40.717Z,101960.28
2017-12-02T16:06:13.881Z,101963.22
2017-12-02T16:08:45.645Z,101961.19
2017-12-02T16:11:18.101Z,101962.50
2017-12-02T16:13:46.900Z,101959.83
2017-12-02T16:16:17.785Z,101972.06
2017-12-02T16:18:46.333Z,101973.81
2017-12-02T16:21:17.753Z,101974.41
2017-12-02T16:23:47.694Z,101975.93
2017-12-02T16:26:18.938Z,101974.04
2017-12-02T16:28:47.371Z,101974.91
2017-12-02T16:31:16.665Z,101982.36
2017-12-02T16:33:45.473Z,101975.38
2017-12-02T16:36:15.903Z,101977.88
2017-12-02T16:38:45.028Z,101982.66
2017-12-02T16:41:16.989Z,101983.19
2017-12-02T16:43:47.789Z,101985.44
2017-12-02T16:46:16.729Z,101986.94
2017-12-02T16:48:45.102Z,101989.25
2017-12-02T16:51:13.621Z,101986.27
2017-12-02T16:53:42.433Z,101990.53
2017-12-02T16:56:11.769Z,101990.36
2017-12-02T16:58:40.202Z,101993.56
2017-12-02T17:01:09.429Z,101991.09
2017-12-02T17:03:37.897Z,101996.45
2017-12-02T17:06:07.088Z,101997.26
2017-12-02T17:08:36.416Z,101997.62
2017-12-02T17:11:04.973Z,102002.05
2017-12-02T17:13:34.829Z,102000.54
2017-12-02T17:16:04.057Z,101996.59
2017-12-02T17:18:33.181Z,101998.32
2017-12-02T17:21:01.624Z,101996.90
2017-12-02T17:23:30.009Z,101997.06
2017-12-02T17:25:58.433Z,101990.86
2017-12-02T17:28:28.092Z,101994.62
2017-12-02T17:30:57.436Z,101985.66
2017-12-02T17:33:26.616Z,101991.41
2017-12-02T17:35:55.806Z,101995.64
2017-12-02T17:38:24.746Z,101993.67
2017-12-02T17:40:53.270Z,101996.98
2017-12-02T17:43:21.692Z,101986.59
2017-12-02T17:45:50.317Z,101996.22
2017-12-02T17:48:19.722Z,101993.91
2017-12-02T17:50:48.100Z,101995.53
2017-12-02T17:53:17.282Z,101995.09
2017-12-02T17:55:45.764Z,101993.75
2017-12-02T17:58:21.534Z,101991.88
2017-12-02T18:00:50.046Z,101995.63
2017-12-02T18:03:19.920Z,101987.67
2017-12-02T18:05:49.716Z,101991.76
2017-12-02T18:08:18.992Z,101992.59
2017-12-02T18:10:47.378Z,101993.89
2017-12-02T18:13:16.202Z,101989.20
2017-12-02T18:15:44.577Z,101992.09
2017-12-02T18:18:13.326Z,101991.14
2017-12-02T18:20:42.466Z,101991.91
2017-12-02T18:23:11.268Z,101999.17
2017-12-02T18:25:40.062Z,101995.55
2017-12-02T18:28:08.848Z,101991.72
2017-12-02T18:30:38.188Z,101987.17
2017-12-02T18:33:06.612Z,101998.02
2017-12-02T18:35:34.972Z,101995.29
2017-12-02T18:38:03.484Z,101994.25
2017-12-02T18:40:32.648Z,101990.13
2017-12-02T18:43:01.038Z,101987.22
2017-12-02T18:45:30.720Z,101980.94
2017-12-02T18:48:00.784Z,101990.16
2017-12-02T18:50:32.806Z,101993.28
2017-12-02T18:53:04.748Z,101988.02
2017-12-02T18:55:34.121Z,101993.70
2017-12-02T18:58:02.549Z,101989.42
2017-12-02T19:00:31.313Z,101989.18
2017-12-02T19:02:59.681Z,101992.50
2017-12-02T19:05:28.928Z,101992.53
2017-12-02T19:07:58.028Z,101993.27
2017-12-02T19:10:26.436Z,101990.04
2017-12-02T19:12:56.293Z,101991.02
2017-12-02T19:15:24.704Z,101999.18
2017-12-02T19:17:54.451Z,101983.98
2017-12-02T19:20:24.377Z,101995.32
2017-12-02T19:22:53.565Z,101995.23
2017-12-02T19:25:23.546Z,101994.67
2017-12-02T19:27:52.373Z,101988.41
2017-12-02T19:30:21.500Z,101991.88
2017-12-02T19:32:49.868Z,101986.33
2017-12-02T19:35:20.284Z,101989.27
2017-12-02T19:37:49.387Z,101991.20
2017-12-02T19:40:17.771Z,101990.90
2017-12-02T19:42:47.513Z,101989.63
2017-12-02T19:45:15.872Z,101978.43
2017-12-02T19:47:45.624Z,101989.12
2017-12-02T19:50:14.387Z,101989.92
2017-12-02T19:52:42.742Z,101993.23
2017-12-02T19:55:11.152Z,101995.11
2017-12-02T19:57:40.012Z,101994.73
2017-12-02T20:00:08.447Z,101996.37
2017-12-02T20:02:38.219Z,101991.59
2017-12-02T20:05:10.168Z,101992.09
2017-12-02T20:07:38.560Z,101994.41
2017-12-02T20:10:07.951Z,101991.97
2017-12-02T20:12:37.691Z,101996.90
2017-12-02T20:15:06.882Z,102001.34
2017-12-02T20:17:36.092Z,101998.00
2017-12-02T20:20:04.488Z,101994.47
2017-12-02T20:22:34.432Z,101988.68
2017-12-02T20:25:02.835Z,101991.94
2017-12-02T20:27:32.135Z,101987.61
2017-12-02T20:30:00.491Z,101982.83
2017-12-02T20:32:29.612Z,101976.24
2017-12-02T20:34:58.727Z,101977.97
2017-12-02T20:37:28.211Z,101981.41
2017-12-02T20:39:56.667Z,101969.48
2017-12-02T20:42:25.802Z,101969.84
2017-12-02T20:44:55.047Z,101972.89
2017-12-02T20:47:23.407Z,101971.17
2017-12-02T20:49:51.851Z,101972.86
2017-12-02T20:52:20.671Z,101971.20
2017-12-02T20:54:49.151Z,101983.55
2017-12-02T20:57:17.551Z,101972.50
2017-12-02T20:59:45.967Z,101968.70
2017-12-02T21:02:14.451Z,101972.53
2017-12-02T21:04:43.736Z,101971.17
2017-12-02T21:07:12.103Z,101963.84
2017-12-02T21:09:40.803Z,101962.09
2017-12-02T21:12:09.175Z,101962.86
2017-12-02T21:14:37.983Z,101960.96
2017-12-02T21:17:06.818Z,101960.30
2017-12-02T21:19:36.188Z,101954.64
2017-12-02T21:22:06.106Z,101958.31
2017-12-02T21:24:34.558Z,101955.89
2017-12-02T21:27:02.942Z,101956.95
2017-12-02T21:29:32.323Z,101956.98
2017-12-02T21:32:00.683Z,101953.78
2017-12-02T21:34:29.887Z,101952.50
2017-12-02T21:36:58.278Z,101950.94
2017-12-02T21:39:29.259Z,101955.67
2017-12-02T21:41:59.371Z,101956.66
2017-12-02T21:44:30.739Z,101960.52
2017-12-02T21:47:00.167Z,101957.58
2017-12-02T21:49:29.774Z,101955.05
2017-12-02T21:51:58.172Z,101958.55
2017-12-02T21:54:28.326Z,101954.76
2017-12-02T21:56:57.291Z,101957.34
2017-12-02T21:59:26.994Z,101962.98
2017-12-02T22:01:56.086Z,101960.42
2017-12-02T22:04:25.601Z,101958.05
2017-12-02T22:06:55.294Z,101956.13
2017-12-02T22:09:26.379Z,101959.89
2017-12-02T22:15:01.722Z,101956.57
2017-12-02T22:17:32.338Z,101956.98
2017-12-02T22:20:06.559Z,101958.70
2017-12-02T22:22:38.720Z,101958.14
2017-12-02T22:25:07.255Z,101957.25
2017-12-02T22:27:36.360Z,101955.79
2017-12-02T22:30:07.042Z,101964.54
2017-12-02T22:32:35.696Z,101959.21
2017-12-02T22:35:04.044Z,101954.88
2017-12-02T22:37:33.218Z,101959.17
2017-12-02T22:40:01.575Z,101955.23
2017-12-02T22:42:30.016Z,101954.84
2017-12-02T22:44:59.499Z,101958.85
2017-12-02T22:47:27.874Z,101949.89
2017-12-02T22:49:56.364Z,101948.55
2017-12-02T22:52:24.716Z,101945.82
2017-12-02T22:54:53.122Z,101944.73
2017-12-02T22:57:22.278Z,101943.45
2017-12-02T22:59:50.638Z,101945.14
2017-12-02T23:02:18.988Z,101940.19
2017-12-02T23:04:48.057Z,101945.11
2017-12-02T23:07:17.902Z,101948.11
2017-12-02T23:09:46.302Z,101942.00
2017-12-02T23:12:14.678Z,101942.86
2017-12-02T23:14:43.462Z,101943.84
2017-12-02T23:17:11.904Z,101945.63
2017-12-02T23:19:41.074Z,101945.27
2017-12-02T23:22:09.469Z,101946.56
2017-12-02T23:24:37.866Z,101943.19
2017-12-02T23:27:06.617Z,101941.61
2017-12-02T23:29:34.941Z,101942.31
2017-12-02T23:32:03.722Z,101941.03
2017-12-02T23:34:33.193Z,101936.71
2017-12-02T23:37:01.973Z,101929.12
2017-12-02T23:39:30.349Z,101923.91
2017-12-02T23:41:58.690Z,101928.61
2017-12-02T23:44:27.017Z,101929.20
2017-12-02T23:46:55.406Z,101923.89
2017-12-02T23:49:23.809Z,101925.61
2017-12-02T23:51:52.575Z,101925.11
2017-12-02T23:54:21.740Z,101919.83
2017-12-02T23:56:50.913Z,101922.27
2017-12-02T23:59:19.253Z,101917.67
